sensor_id;sensor_type;location;lat;lon;timestamp;P1;durP1;ratioP1;P2;durP2;ratioP2
30247;SDS011;17063;50.892;4.702;2022-08-30T00:02:01;6.60;;;3.20;;
30247;SDS011;17063;50.892;4.702;2022-08-30T00:04:28;7.47;;;3.07;;
30247;SDS011;17063;50.892;4.702;2022-08-30T00:06:55;5.70;;;3.20;;
30247;SDS011;17063;50.892;4.702;2022-08-30T00:09:21;7.27;;;3.27;;
30247;SDS011;17063;50.892;4.702;2022-08-30T00:11:48;6.10;;;3.17;;
30247;SDS011;17063;50.892;4.702;2022-08-30T00:14:17;4.63;;;3.23;;
30247;SDS011;17063;50.892;4.702;2022-08-30T00:16:46;7.20;;;2.80;;
30247;SDS011;17063;50.892;4.702;2022-08-30T00:19:13;6.43;;;3.07;;
30247;SDS011;17063;50.892;4.702;2022-08-30T00:21:39;9.03;;;3.60;;
30247;SDS011;17063;50.892;4.702;2022-08-30T00:24:06;9.07;;;3.77;;
30247;SDS011;17063;50.892;4.702;2022-08-30T00:26:33;8.00;;;3.67;;
30247;SDS011;17063;50.892;4.702;2022-08-30T00:29:00;7.37;;;3.40;;
30247;SDS011;17063;50.892;4.702;2022-08-30T00:31:27;8.70;;;3.93;;
30247;SDS011;17063;50.892;4.702;2022-08-30T00:33:54;8.50;;;3.67;;
30247;SDS011;17063;50.892;4.702;2022-08-30T00:36:20;7.97;;;3.63;;
30247;SDS011;17063;50.892;4.702;2022-08-30T00:38:47;8.63;;;3.70;;
30247;SDS011;17063;50.892;4.702;2022-08-30T00:41:14;9.33;;;3.47;;
30247;SDS011;17063;50.892;4.702;2022-08-30T00:43:41;12.27;;;3.63;;
30247;SDS011;17063;50.892;4.702;2022-08-30T00:46:08;8.77;;;3.33;;
30247;SDS011;17063;50.892;4.702;2022-08-30T00:48:36;8.47;;;3.67;;
30247;SDS011;17063;50.892;4.702;2022-08-30T00:51:06;6.80;;;3.67;;
30247;SDS011;17063;50.892;4.702;2022-08-30T00:53:38;7.67;;;4.10;;
30247;SDS011;17063;50.892;4.702;2022-08-30T00:56:09;8.43;;;3.60;;
30247;SDS011;17063;50.892;4.702;2022-08-30T00:58:37;14.63;;;4.00;;
30247;SDS011;17063;50.892;4.702;2022-08-30T01:01:07;9.30;;;3.70;;
30247;SDS011;17063;50.892;4.702;2022-08-30T01:03:35;6.77;;;3.63;;
30247;SDS011;17063;50.892;4.702;2022-08-30T01:06:03;11.80;;;4.17;;
30247;SDS011;17063;50.892;4.702;2022-08-30T01:08:30;11.23;;;4.13;;
30247;SDS011;17063;50.892;4.702;2022-08-30T01:10:57;9.90;;;3.90;;
30247;SDS011;17063;50.892;4.702;2022-08-30T01:13:24;11.70;;;3.83;;
30247;SDS011;17063;50.892;4.702;2022-08-30T01:15:52;8.30;;;3.53;;
30247;SDS011;17063;50.892;4.702;2022-08-30T01:18:21;9.43;;;4.23;;
30247;SDS011;17063;50.892;4.702;2022-08-30T01:20:56;11.60;;;4.17;;
30247;SDS011;17063;50.892;4.702;2022-08-30T01:23:29;9.43;;;4.20;;
30247;SDS011;17063;50.892;4.702;2022-08-30T01:25:57;9.23;;;4.10;;
30247;SDS011;17063;50.892;4.702;2022-08-30T01:28:25;6.93;;;4.03;;
30247;SDS011;17063;50.892;4.702;2022-08-30T01:30:54;9.77;;;3.90;;
30247;SDS011;17063;50.892;4.702;2022-08-30T01:33:21;8.87;;;4.10;;
30247;SDS011;17063;50.892;4.702;2022-08-30T01:35:50;6.30;;;3.63;;
30247;SDS011;17063;50.892;4.702;2022-08-30T01:38:44;9.13;;;3.97;;
30247;SDS011;17063;50.892;4.702;2022-08-30T01:41:16;5.60;;;3.70;;
30247;SDS011;17063;50.892;4.702;2022-08-30T01:43:52;9.43;;;5.00;;
30247;SDS011;17063;50.892;4.702;2022-08-30T01:46:21;8.50;;;4.20;;
30247;SDS011;17063;50.892;4.702;2022-08-30T01:48:51;10.87;;;4.50;;
30247;SDS011;17063;50.892;4.702;2022-08-30T01:51:20;8.53;;;4.40;;
30247;SDS011;17063;50.892;4.702;2022-08-30T01:53:48;12.27;;;4.43;;
30247;SDS011;17063;50.892;4.702;2022-08-30T01:56:15;10.20;;;4.40;;
30247;SDS011;17063;50.892;4.702;2022-08-30T01:58:42;10.63;;;4.33;;
30247;SDS011;17063;50.892;4.702;2022-08-30T02:01:10;11.50;;;4.17;;
30247;SDS011;17063;50.892;4.702;2022-08-30T02:03:40;7.90;;;4.20;;
30247;SDS011;17063;50.892;4.702;2022-08-30T02:06:10;11.23;;;4.20;;
30247;SDS011;17063;50.892;4.702;2022-08-30T02:08:41;13.17;;;4.43;;
30247;SDS011;17063;50.892;4.702;2022-08-30T02:11:08;13.47;;;4.90;;
30247;SDS011;17063;50.892;4.702;2022-08-30T02:13:36;12.63;;;3.90;;
30247;SDS011;17063;50.892;4.702;2022-08-30T02:16:04;11.13;;;4.73;;
30247;SDS011;17063;50.892;4.702;2022-08-30T02:18:33;13.00;;;4.40;;
30247;SDS011;17063;50.892;4.702;2022-08-30T02:21:01;12.43;;;4.37;;
30247;SDS011;17063;50.892;4.702;2022-08-30T02:23:28;7.33;;;4.17;;
30247;SDS011;17063;50.892;4.702;2022-08-30T02:25:56;7.93;;;4.20;;
30247;SDS011;17063;50.892;4.702;2022-08-30T02:28:24;9.67;;;4.27;;
30247;SDS011;17063;50.892;4.702;2022-08-30T02:30:51;11.20;;;4.53;;
30247;SDS011;17063;50.892;4.702;2022-08-30T02:33:18;8.10;;;4.40;;
30247;SDS011;17063;50.892;4.702;2022-08-30T02:35:45;17.43;;;4.40;;
30247;SDS011;17063;50.892;4.702;2022-08-30T02:38:12;12.87;;;4.10;;
30247;SDS011;17063;50.892;4.702;2022-08-30T02:40:39;11.00;;;3.93;;
30247;SDS011;17063;50.892;4.702;2022-08-30T02:43:06;16.00;;;4.90;;
30247;SDS011;17063;50.892;4.702;2022-08-30T02:45:33;8.17;;;4.53;;
30247;SDS011;17063;50.892;4.702;2022-08-30T02:48:00;7.10;;;4.00;;
30247;SDS011;17063;50.892;4.702;2022-08-30T02:50:26;13.43;;;4.50;;
30247;SDS011;17063;50.892;4.702;2022-08-30T02:52:56;10.70;;;4.10;;
30247;SDS011;17063;50.892;4.702;2022-08-30T02:55:24;11.07;;;4.43;;
30247;SDS011;17063;50.892;4.702;2022-08-30T02:57:51;11.97;;;4.47;;
30247;SDS011;17063;50.892;4.702;2022-08-30T03:00:18;11.90;;;4.43;;
30247;SDS011;17063;50.892;4.702;2022-08-30T03:02:46;10.27;;;4.37;;
30247;SDS011;17063;50.892;4.702;2022-08-30T03:05:13;12.67;;;4.47;;
30247;SDS011;17063;50.892;4.702;2022-08-30T03:07:41;11.23;;;4.67;;
30247;SDS011;17063;50.892;4.702;2022-08-30T03:10:09;7.57;;;4.63;;
30247;SDS011;17063;50.892;4.702;2022-08-30T03:12:36;11.60;;;5.00;;
30247;SDS011;17063;50.892;4.702;2022-08-30T03:15:03;9.00;;;4.03;;
30247;SDS011;17063;50.892;4.702;2022-08-30T03:17:31;9.40;;;4.00;;
30247;SDS011;17063;50.892;4.702;2022-08-30T03:19:58;11.10;;;5.13;;
30247;SDS011;17063;50.892;4.702;2022-08-30T03:22:27;9.90;;;4.70;;
30247;SDS011;17063;50.892;4.702;2022-08-30T03:24:55;12.10;;;4.73;;
30247;SDS011;17063;50.892;4.702;2022-08-30T03:27:27;9.50;;;4.30;;
30247;SDS011;17063;50.892;4.702;2022-08-30T03:29:54;15.20;;;4.70;;
30247;SDS011;17063;50.892;4.702;2022-08-30T03:32:21;11.97;;;4.30;;
30247;SDS011;17063;50.892;4.702;2022-08-30T03:34:48;9.97;;;4.33;;
30247;SDS011;17063;50.892;4.702;2022-08-30T03:37:15;7.37;;;4.50;;
30247;SDS011;17063;50.892;4.702;2022-08-30T03:39:43;15.20;;;4.70;;
30247;SDS011;17063;50.892;4.702;2022-08-30T03:42:11;7.80;;;4.10;;
30247;SDS011;17063;50.892;4.702;2022-08-30T03:44:38;9.33;;;4.43;;
30247;SDS011;17063;50.892;4.702;2022-08-30T03:47:05;8.37;;;4.93;;
30247;SDS011;17063;50.892;4.702;2022-08-30T03:49:33;7.00;;;4.60;;
30247;SDS011;17063;50.892;4.702;2022-08-30T03:52:00;9.00;;;4.67;;
30247;SDS011;17063;50.892;4.702;2022-08-30T03:54:28;12.33;;;4.60;;
30247;SDS011;17063;50.892;4.702;2022-08-30T03:56:54;10.73;;;4.77;;
30247;SDS011;17063;50.892;4.702;2022-08-30T03:59:21;10.10;;;4.80;;
30247;SDS011;17063;50.892;4.702;2022-08-30T04:01:48;9.83;;;4.40;;
30247;SDS011;17063;50.892;4.702;2022-08-30T04:04:15;8.10;;;4.37;;
30247;SDS011;17063;50.892;4.702;2022-08-30T04:06:46;8.97;;;4.70;;
30247;SDS011;17063;50.892;4.702;2022-08-30T04:09:13;8.40;;;4.20;;
30247;SDS011;17063;50.892;4.702;2022-08-30T04:11:40;11.20;;;4.57;;
30247;SDS011;17063;50.892;4.702;2022-08-30T04:14:07;9.80;;;5.03;;
30247;SDS011;17063;50.892;4.702;2022-08-30T04:16:34;9.23;;;4.80;;
30247;SDS011;17063;50.892;4.702;2022-08-30T04:19:01;12.60;;;5.07;;
30247;SDS011;17063;50.892;4.702;2022-08-30T04:21:29;9.13;;;4.73;;
30247;SDS011;17063;50.892;4.702;2022-08-30T04:23:56;11.93;;;4.27;;
30247;SDS011;17063;50.892;4.702;2022-08-30T04:26:23;10.73;;;4.30;;
30247;SDS011;17063;50.892;4.702;2022-08-30T04:28:55;9.07;;;4.60;;
30247;SDS011;17063;50.892;4.702;2022-08-30T04:31:21;9.70;;;4.73;;
30247;SDS011;17063;50.892;4.702;2022-08-30T04:33:48;7.23;;;4.87;;
30247;SDS011;17063;50.892;4.702;2022-08-30T04:36:15;8.80;;;4.90;;
30247;SDS011;17063;50.892;4.702;2022-08-30T04:38:42;9.03;;;4.63;;
30247;SDS011;17063;50.892;4.702;2022-08-30T04:41:13;15.90;;;5.13;;
30247;SDS011;17063;50.892;4.702;2022-08-30T04:43:42;9.83;;;4.93;;
30247;SDS011;17063;50.892;4.702;2022-08-30T04:46:10;12.63;;;5.17;;
30247;SDS011;17063;50.892;4.702;2022-08-30T04:48:39;11.23;;;4.90;;
30247;SDS011;17063;50.892;4.702;2022-08-30T04:51:07;10.53;;;5.10;;
30247;SDS011;17063;50.892;4.702;2022-08-30T04:53:36;12.87;;;5.10;;
30247;SDS011;17063;50.892;4.702;2022-08-30T04:56:10;14.07;;;4.63;;
30247;SDS011;17063;50.892;4.702;2022-08-30T04:58:38;12.47;;;5.10;;
30247;SDS011;17063;50.892;4.702;2022-08-30T05:01:10;11.13;;;4.83;;
30247;SDS011;17063;50.892;4.702;2022-08-30T05:03:39;9.40;;;5.23;;
30247;SDS011;17063;50.892;4.702;2022-08-30T05:06:06;9.57;;;5.33;;
30247;SDS011;17063;50.892;4.702;2022-08-30T05:08:33;8.90;;;4.57;;
30247;SDS011;17063;50.892;4.702;2022-08-30T05:11:02;11.23;;;5.03;;
30247;SDS011;17063;50.892;4.702;2022-08-30T05:13:30;15.40;;;5.57;;
30247;SDS011;17063;50.892;4.702;2022-08-30T05:16:03;9.17;;;4.80;;
30247;SDS011;17063;50.892;4.702;2022-08-30T05:18:31;8.23;;;5.17;;
30247;SDS011;17063;50.892;4.702;2022-08-30T05:21:08;13.13;;;4.93;;
30247;SDS011;17063;50.892;4.702;2022-08-30T05:23:37;10.60;;;5.13;;
30247;SDS011;17063;50.892;4.702;2022-08-30T05:26:05;8.03;;;4.47;;
30247;SDS011;17063;50.892;4.702;2022-08-30T05:28:34;10.87;;;5.07;;
30247;SDS011;17063;50.892;4.702;2022-08-30T05:31:01;10.63;;;4.80;;
30247;SDS011;17063;50.892;4.702;2022-08-30T05:33:29;11.77;;;4.97;;
30247;SDS011;17063;50.892;4.702;2022-08-30T05:35:55;12.70;;;5.30;;
30247;SDS011;17063;50.892;4.702;2022-08-30T05:38:22;8.13;;;4.70;;
30247;SDS011;17063;50.892;4.702;2022-08-30T05:40:49;9.57;;;5.77;;
30247;SDS011;17063;50.892;4.702;2022-08-30T05:43:17;10.93;;;5.23;;
30247;SDS011;17063;50.892;4.702;2022-08-30T05:45:44;10.60;;;4.87;;
30247;SDS011;17063;50.892;4.702;2022-08-30T05:48:10;11.43;;;4.80;;
30247;SDS011;17063;50.892;4.702;2022-08-30T05:50:38;9.07;;;4.73;;
30247;SDS011;17063;50.892;4.702;2022-08-30T05:53:05;12.70;;;4.87;;
30247;SDS011;17063;50.892;4.702;2022-08-30T05:55:32;10.23;;;4.67;;
30247;SDS011;17063;50.892;4.702;2022-08-30T05:57:59;6.87;;;4.27;;
30247;SDS011;17063;50.892;4.702;2022-08-30T06:00:26;5.37;;;4.30;;
30247;SDS011;17063;50.892;4.702;2022-08-30T06:02:55;10.87;;;4.27;;
30247;SDS011;17063;50.892;4.702;2022-08-30T06:05:22;11.03;;;4.63;;
30247;SDS011;17063;50.892;4.702;2022-08-30T06:07:49;8.10;;;3.80;;
30247;SDS011;17063;50.892;4.702;2022-08-30T06:10:16;7.23;;;4.07;;
30247;SDS011;17063;50.892;4.702;2022-08-30T06:12:43;6.37;;;4.10;;
30247;SDS011;17063;50.892;4.702;2022-08-30T06:15:10;17.33;;;5.37;;
30247;SDS011;17063;50.892;4.702;2022-08-30T06:17:37;9.77;;;5.20;;
30247;SDS011;17063;50.892;4.702;2022-08-30T06:20:05;9.33;;;4.40;;
30247;SDS011;17063;50.892;4.702;2022-08-30T06:22:33;10.07;;;5.00;;
30247;SDS011;17063;50.892;4.702;2022-08-30T06:25:00;15.10;;;5.77;;
30247;SDS011;17063;50.892;4.702;2022-08-30T06:27:27;10.03;;;5.07;;
30247;SDS011;17063;50.892;4.702;2022-08-30T06:29:54;12.53;;;5.37;;
30247;SDS011;17063;50.892;4.702;2022-08-30T06:32:20;7.63;;;4.87;;
30247;SDS011;17063;50.892;4.702;2022-08-30T06:34:48;9.13;;;5.77;;
30247;SDS011;17063;50.892;4.702;2022-08-30T06:37:14;8.37;;;5.67;;
30247;SDS011;17063;50.892;4.702;2022-08-30T06:39:55;11.47;;;6.13;;
30247;SDS011;17063;50.892;4.702;2022-08-30T06:42:23;11.60;;;5.63;;
30247;SDS011;17063;50.892;4.702;2022-08-30T06:45:02;11.00;;;5.40;;
30247;SDS011;17063;50.892;4.702;2022-08-30T06:47:36;9.07;;;5.07;;
30247;SDS011;17063;50.892;4.702;2022-08-30T06:50:04;9.43;;;5.90;;
30247;SDS011;17063;50.892;4.702;2022-08-30T06:52:31;18.07;;;5.80;;
30247;SDS011;17063;50.892;4.702;2022-08-30T06:54:59;11.07;;;6.00;;
30247;SDS011;17063;50.892;4.702;2022-08-30T06:57:26;12.77;;;6.17;;
30247;SDS011;17063;50.892;4.702;2022-08-30T06:59:56;9.93;;;6.40;;
30247;SDS011;17063;50.892;4.702;2022-08-30T07:02:24;7.60;;;6.27;;
30247;SDS011;17063;50.892;4.702;2022-08-30T07:04:51;10.07;;;6.13;;
30247;SDS011;17063;50.892;4.702;2022-08-30T07:07:18;16.03;;;5.90;;
30247;SDS011;17063;50.892;4.702;2022-08-30T07:09:45;10.73;;;5.90;;
30247;SDS011;17063;50.892;4.702;2022-08-30T07:12:12;10.23;;;5.90;;
30247;SDS011;17063;50.892;4.702;2022-08-30T07:14:39;16.80;;;6.20;;
30247;SDS011;17063;50.892;4.702;2022-08-30T07:17:07;8.13;;;6.00;;
30247;SDS011;17063;50.892;4.702;2022-08-30T07:19:59;13.97;;;5.97;;
30247;SDS011;17063;50.892;4.702;2022-08-30T07:22:26;14.07;;;6.13;;
30247;SDS011;17063;50.892;4.702;2022-08-30T07:24:54;8.50;;;5.43;;
30247;SDS011;17063;50.892;4.702;2022-08-30T07:27:20;17.97;;;6.43;;
30247;SDS011;17063;50.892;4.702;2022-08-30T07:29:48;12.40;;;6.20;;
30247;SDS011;17063;50.892;4.702;2022-08-30T07:32:15;12.03;;;6.13;;
30247;SDS011;17063;50.892;4.702;2022-08-30T07:34:42;16.10;;;5.90;;
30247;SDS011;17063;50.892;4.702;2022-08-30T07:37:09;12.33;;;5.20;;
30247;SDS011;17063;50.892;4.702;2022-08-30T07:39:43;8.90;;;5.30;;
30247;SDS011;17063;50.892;4.702;2022-08-30T07:42:13;8.47;;;5.07;;
30247;SDS011;17063;50.892;4.702;2022-08-30T07:44:41;7.80;;;5.27;;
30247;SDS011;17063;50.892;4.702;2022-08-30T07:47:09;10.20;;;5.03;;
30247;SDS011;17063;50.892;4.702;2022-08-30T07:49:36;7.50;;;4.73;;
30247;SDS011;17063;50.892;4.702;2022-08-30T07:52:03;10.33;;;5.27;;
30247;SDS011;17063;50.892;4.702;2022-08-30T07:54:30;11.47;;;5.27;;
30247;SDS011;17063;50.892;4.702;2022-08-30T07:56:57;8.30;;;4.53;;
30247;SDS011;17063;50.892;4.702;2022-08-30T07:59:24;11.93;;;5.33;;
30247;SDS011;17063;50.892;4.702;2022-08-30T08:01:51;9.10;;;4.97;;
30247;SDS011;17063;50.892;4.702;2022-08-30T08:04:18;13.40;;;5.17;;
30247;SDS011;17063;50.892;4.702;2022-08-30T08:06:45;9.30;;;4.63;;
30247;SDS011;17063;50.892;4.702;2022-08-30T08:09:11;8.47;;;4.87;;
30247;SDS011;17063;50.892;4.702;2022-08-30T08:11:38;7.97;;;4.70;;
30247;SDS011;17063;50.892;4.702;2022-08-30T08:14:07;14.57;;;5.07;;
30247;SDS011;17063;50.892;4.702;2022-08-30T08:16:35;8.03;;;4.20;;
30247;SDS011;17063;50.892;4.702;2022-08-30T08:19:03;5.70;;;4.10;;
30247;SDS011;17063;50.892;4.702;2022-08-30T08:21:34;9.47;;;4.90;;
30247;SDS011;17063;50.892;4.702;2022-08-30T08:24:02;6.07;;;3.87;;
30247;SDS011;17063;50.892;4.702;2022-08-30T08:26:29;10.80;;;4.13;;
30247;SDS011;17063;50.892;4.702;2022-08-30T08:28:56;10.63;;;4.23;;
30247;SDS011;17063;50.892;4.702;2022-08-30T08:31:24;6.90;;;4.40;;
30247;SDS011;17063;50.892;4.702;2022-08-30T08:33:59;10.80;;;3.97;;
30247;SDS011;17063;50.892;4.702;2022-08-30T08:36:28;7.10;;;4.10;;
30247;SDS011;17063;50.892;4.702;2022-08-30T08:38:57;9.30;;;4.10;;
30247;SDS011;17063;50.892;4.702;2022-08-30T08:49:50;9.27;;;3.63;;
30247;SDS011;17063;50.892;4.702;2022-08-30T08:52:21;5.73;;;3.63;;
30247;SDS011;17063;50.892;4.702;2022-08-30T08:55:10;12.43;;;3.70;;
30247;SDS011;17063;50.892;4.702;2022-08-30T08:57:39;7.43;;;3.63;;
30247;SDS011;17063;50.892;4.702;2022-08-30T09:00:07;7.40;;;3.73;;
30247;SDS011;17063;50.892;4.702;2022-08-30T09:02:46;9.03;;;3.67;;
30247;SDS011;17063;50.892;4.702;2022-08-30T09:05:22;9.50;;;3.80;;
30247;SDS011;17063;50.892;4.702;2022-08-30T09:07:53;10.67;;;3.90;;
30247;SDS011;17063;50.892;4.702;2022-08-30T09:10:24;6.63;;;4.00;;
30247;SDS011;17063;50.892;4.702;2022-08-30T09:13:11;5.97;;;3.43;;
30247;SDS011;17063;50.892;4.702;2022-08-30T09:15:39;6.87;;;3.40;;
30247;SDS011;17063;50.892;4.702;2022-08-30T09:18:06;6.57;;;3.80;;
30247;SDS011;17063;50.892;4.702;2022-08-30T09:20:46;8.30;;;3.90;;
30247;SDS011;17063;50.892;4.702;2022-08-30T09:25:51;7.93;;;3.47;;
30247;SDS011;17063;50.892;4.702;2022-08-30T09:28:28;4.87;;;3.37;;
30247;SDS011;17063;50.892;4.702;2022-08-30T09:30:58;10.30;;;3.70;;
30247;SDS011;17063;50.892;4.702;2022-08-30T09:33:37;7.17;;;3.60;;
30247;SDS011;17063;50.892;4.702;2022-08-30T09:36:25;7.73;;;3.30;;
30247;SDS011;17063;50.892;4.702;2022-08-30T09:38:57;7.70;;;3.40;;
30247;SDS011;17063;50.892;4.702;2022-08-30T09:41:28;11.93;;;3.77;;
30247;SDS011;17063;50.892;4.702;2022-08-30T09:44:09;7.00;;;3.90;;
30247;SDS011;17063;50.892;4.702;2022-08-30T09:46:50;6.97;;;3.87;;
30247;SDS011;17063;50.892;4.702;2022-08-30T09:49:39;5.50;;;3.03;;
30247;SDS011;17063;50.892;4.702;2022-08-30T09:54:35;7.33;;;3.40;;
30247;SDS011;17063;50.892;4.702;2022-08-30T09:57:10;6.97;;;3.30;;
30247;SDS011;17063;50.892;4.702;2022-08-30T09:59:49;6.87;;;3.30;;
30247;SDS011;17063;50.892;4.702;2022-08-30T10:02:26;7.53;;;3.30;;
30247;SDS011;17063;50.892;4.702;2022-08-30T10:05:11;6.00;;;2.90;;
30247;SDS011;17063;50.892;4.702;2022-08-30T10:14:10;8.30;;;2.70;;
30247;SDS011;17063;50.892;4.702;2022-08-30T10:25:12;8.70;;;2.50;;
30247;SDS011;17063;50.892;4.702;2022-08-30T10:27:51;6.47;;;2.47;;
30247;SDS011;17063;50.892;4.702;2022-08-30T10:30:29;8.77;;;2.60;;
30247;SDS011;17063;50.892;4.702;2022-08-30T10:33:10;9.63;;;2.97;;
30247;SDS011;17063;50.892;4.702;2022-08-30T10:35:46;6.47;;;2.70;;
30247;SDS011;17063;50.892;4.702;2022-08-30T10:38:17;7.70;;;2.53;;
30247;SDS011;17063;50.892;4.702;2022-08-30T10:50:34;5.50;;;2.80;;
30247;SDS011;17063;50.892;4.702;2022-08-30T10:53:03;10.17;;;3.00;;
30247;SDS011;17063;50.892;4.702;2022-08-30T10:55:36;10.87;;;3.10;;
30247;SDS011;17063;50.892;4.702;2022-08-30T10:58:15;5.83;;;2.80;;
30247;SDS011;17063;50.892;4.702;2022-08-30T11:00:49;6.80;;;2.80;;
30247;SDS011;17063;50.892;4.702;2022-08-30T11:08:58;7.17;;;2.70;;
30247;SDS011;17063;50.892;4.702;2022-08-30T11:14:45;10.00;;;2.40;;
30247;SDS011;17063;50.892;4.702;2022-08-30T11:19:56;11.17;;;2.73;;
30247;SDS011;17063;50.892;4.702;2022-08-30T11:22:29;9.93;;;2.93;;
30247;SDS011;17063;50.892;4.702;2022-08-30T11:40:50;10.50;;;2.70;;
30247;SDS011;17063;50.892;4.702;2022-08-30T11:46:13;5.20;;;2.70;;
30247;SDS011;17063;50.892;4.702;2022-08-30T11:48:41;5.27;;;2.33;;
30247;SDS011;17063;50.892;4.702;2022-08-30T12:00:28;7.83;;;2.50;;
30247;SDS011;17063;50.892;4.702;2022-08-30T12:03:01;6.03;;;2.50;;
30247;SDS011;17063;50.892;4.702;2022-08-30T12:08:09;3.87;;;2.60;;
30247;SDS011;17063;50.892;4.702;2022-08-30T12:10:52;4.17;;;2.60;;
30247;SDS011;17063;50.892;4.702;2022-08-30T12:18:44;7.77;;;2.70;;
30247;SDS011;17063;50.892;4.702;2022-08-30T12:26:37;7.53;;;2.60;;
30247;SDS011;17063;50.892;4.702;2022-08-30T12:31:45;3.60;;;2.70;;
30247;SDS011;17063;50.892;4.702;2022-08-30T12:34:30;6.67;;;3.20;;
30247;SDS011;17063;50.892;4.702;2022-08-30T12:39:38;7.23;;;2.73;;
30247;SDS011;17063;50.892;4.702;2022-08-30T12:42:16;14.23;;;2.67;;
30247;SDS011;17063;50.892;4.702;2022-08-30T12:44:46;7.10;;;2.57;;
30247;SDS011;17063;50.892;4.702;2022-08-30T12:47:16;10.77;;;2.90;;
30247;SDS011;17063;50.892;4.702;2022-08-30T12:49:45;6.00;;;2.40;;
30247;SDS011;17063;50.892;4.702;2022-08-30T12:54:52;12.13;;;2.50;;
30247;SDS011;17063;50.892;4.702;2022-08-30T13:00:07;7.40;;;2.40;;
30247;SDS011;17063;50.892;4.702;2022-08-30T13:02:50;4.43;;;2.30;;
30247;SDS011;17063;50.892;4.702;2022-08-30T13:08:25;7.13;;;2.47;;
30247;SDS011;17063;50.892;4.702;2022-08-30T13:11:07;4.07;;;2.10;;
30247;SDS011;17063;50.892;4.702;2022-08-30T13:13:46;11.37;;;2.27;;
30247;SDS011;17063;50.892;4.702;2022-08-30T13:18:55;4.67;;;2.60;;
30247;SDS011;17063;50.892;4.702;2022-08-30T13:21:51;10.37;;;2.73;;
30247;SDS011;17063;50.892;4.702;2022-08-30T13:24:19;4.33;;;2.23;;
30247;SDS011;17063;50.892;4.702;2022-08-30T13:26:50;8.20;;;2.97;;
30247;SDS011;17063;50.892;4.702;2022-08-30T13:29:20;16.90;;;2.50;;
30247;SDS011;17063;50.892;4.702;2022-08-30T13:31:49;5.40;;;2.73;;
30247;SDS011;17063;50.892;4.702;2022-08-30T13:34:16;7.67;;;2.90;;
30247;SDS011;17063;50.892;4.702;2022-08-30T13:36:46;6.00;;;2.50;;
30247;SDS011;17063;50.892;4.702;2022-08-30T13:39:15;6.57;;;2.40;;
30247;SDS011;17063;50.892;4.702;2022-08-30T13:41:46;8.43;;;2.30;;
30247;SDS011;17063;50.892;4.702;2022-08-30T13:44:13;6.07;;;2.40;;
30247;SDS011;17063;50.892;4.702;2022-08-30T13:46:42;5.17;;;2.30;;
30247;SDS011;17063;50.892;4.702;2022-08-30T13:49:21;6.83;;;2.33;;
30247;SDS011;17063;50.892;4.702;2022-08-30T13:52:16;10.37;;;2.70;;
30247;SDS011;17063;50.892;4.702;2022-08-30T13:54:48;6.20;;;2.70;;
30247;SDS011;17063;50.892;4.702;2022-08-30T13:57:19;4.83;;;2.50;;
30247;SDS011;17063;50.892;4.702;2022-08-30T14:00:11;9.70;;;2.63;;
30247;SDS011;17063;50.892;4.702;2022-08-30T14:02:44;3.43;;;2.60;;
30247;SDS011;17063;50.892;4.702;2022-08-30T14:05:19;7.90;;;3.03;;
30247;SDS011;17063;50.892;4.702;2022-08-30T14:08:07;9.23;;;2.60;;
30247;SDS011;17063;50.892;4.702;2022-08-30T14:10:56;3.70;;;2.50;;
30247;SDS011;17063;50.892;4.702;2022-08-30T14:13:23;3.87;;;2.33;;
30247;SDS011;17063;50.892;4.702;2022-08-30T14:15:52;5.33;;;2.17;;
30247;SDS011;17063;50.892;4.702;2022-08-30T14:18:39;13.13;;;2.77;;
30247;SDS011;17063;50.892;4.702;2022-08-30T14:21:06;5.50;;;2.50;;
30247;SDS011;17063;50.892;4.702;2022-08-30T14:23:33;6.80;;;2.67;;
30247;SDS011;17063;50.892;4.702;2022-08-30T14:26:02;5.20;;;2.47;;
30247;SDS011;17063;50.892;4.702;2022-08-30T14:28:30;7.73;;;2.40;;
30247;SDS011;17063;50.892;4.702;2022-08-30T14:30:57;4.40;;;2.10;;
30247;SDS011;17063;50.892;4.702;2022-08-30T14:33:24;10.30;;;2.80;;
30247;SDS011;17063;50.892;4.702;2022-08-30T14:35:51;3.63;;;2.40;;
30247;SDS011;17063;50.892;4.702;2022-08-30T14:38:18;4.47;;;2.30;;
30247;SDS011;17063;50.892;4.702;2022-08-30T14:40:45;8.13;;;2.30;;
30247;SDS011;17063;50.892;4.702;2022-08-30T14:43:12;6.37;;;2.13;;
30247;SDS011;17063;50.892;4.702;2022-08-30T14:45:39;7.50;;;2.27;;
30247;SDS011;17063;50.892;4.702;2022-08-30T14:48:07;6.97;;;1.93;;
30247;SDS011;17063;50.892;4.702;2022-08-30T14:50:37;6.77;;;2.10;;
30247;SDS011;17063;50.892;4.702;2022-08-30T14:53:05;5.33;;;2.00;;
30247;SDS011;17063;50.892;4.702;2022-08-30T14:55:34;5.03;;;1.70;;
30247;SDS011;17063;50.892;4.702;2022-08-30T14:58:01;3.00;;;2.07;;
30247;SDS011;17063;50.892;4.702;2022-08-30T15:00:29;3.90;;;2.13;;
30247;SDS011;17063;50.892;4.702;2022-08-30T15:02:56;6.17;;;2.00;;
30247;SDS011;17063;50.892;4.702;2022-08-30T15:05:23;8.90;;;2.60;;
30247;SDS011;17063;50.892;4.702;2022-08-30T15:07:50;5.67;;;2.50;;
30247;SDS011;17063;50.892;4.702;2022-08-30T15:10:19;4.13;;;2.20;;
30247;SDS011;17063;50.892;4.702;2022-08-30T15:12:47;6.00;;;1.77;;
30247;SDS011;17063;50.892;4.702;2022-08-30T15:15:15;4.67;;;1.80;;
30247;SDS011;17063;50.892;4.702;2022-08-30T15:17:48;7.60;;;2.10;;
30247;SDS011;17063;50.892;4.702;2022-08-30T15:20:15;4.50;;;1.70;;
30247;SDS011;17063;50.892;4.702;2022-08-30T15:22:46;6.70;;;2.10;;
30247;SDS011;17063;50.892;4.702;2022-08-30T15:25:13;7.40;;;2.10;;
30247;SDS011;17063;50.892;4.702;2022-08-30T15:27:40;3.37;;;1.93;;
30247;SDS011;17063;50.892;4.702;2022-08-30T15:30:08;4.17;;;1.80;;
30247;SDS011;17063;50.892;4.702;2022-08-30T15:32:39;3.37;;;2.20;;
30247;SDS011;17063;50.892;4.702;2022-08-30T15:35:06;2.27;;;1.70;;
30247;SDS011;17063;50.892;4.702;2022-08-30T15:37:33;5.50;;;1.83;;
30247;SDS011;17063;50.892;4.702;2022-08-30T15:40:00;5.13;;;2.00;;
30247;SDS011;17063;50.892;4.702;2022-08-30T15:42:30;4.63;;;1.83;;
30247;SDS011;17063;50.892;4.702;2022-08-30T15:44:58;3.47;;;1.73;;
30247;SDS011;17063;50.892;4.702;2022-08-30T15:47:25;3.10;;;1.83;;
30247;SDS011;17063;50.892;4.702;2022-08-30T15:49:54;3.27;;;1.63;;
30247;SDS011;17063;50.892;4.702;2022-08-30T15:52:24;2.10;;;1.90;;
30247;SDS011;17063;50.892;4.702;2022-08-30T15:54:52;7.03;;;1.97;;
30247;SDS011;17063;50.892;4.702;2022-08-30T15:57:19;9.13;;;2.00;;
30247;SDS011;17063;50.892;4.702;2022-08-30T15:59:46;3.27;;;2.00;;
30247;SDS011;17063;50.892;4.702;2022-08-30T16:02:14;4.80;;;2.00;;
30247;SDS011;17063;50.892;4.702;2022-08-30T16:04:42;2.20;;;1.50;;
30247;SDS011;17063;50.892;4.702;2022-08-30T16:07:11;6.63;;;1.80;;
30247;SDS011;17063;50.892;4.702;2022-08-30T16:09:39;4.00;;;1.63;;
30247;SDS011;17063;50.892;4.702;2022-08-30T16:12:07;5.50;;;1.90;;
30247;SDS011;17063;50.892;4.702;2022-08-30T16:14:35;8.77;;;1.93;;
30247;SDS011;17063;50.892;4.702;2022-08-30T16:17:04;3.97;;;1.90;;
30247;SDS011;17063;50.892;4.702;2022-08-30T16:19:31;3.23;;;2.00;;
30247;SDS011;17063;50.892;4.702;2022-08-30T16:21:58;2.80;;;1.83;;
30247;SDS011;17063;50.892;4.702;2022-08-30T16:24:25;3.63;;;2.00;;
30247;SDS011;17063;50.892;4.702;2022-08-30T16:26:52;7.20;;;1.77;;
30247;SDS011;17063;50.892;4.702;2022-08-30T16:29:19;4.57;;;1.57;;
30247;SDS011;17063;50.892;4.702;2022-08-30T16:31:46;5.67;;;1.70;;
30247;SDS011;17063;50.892;4.702;2022-08-30T16:34:16;6.43;;;2.00;;
30247;SDS011;17063;50.892;4.702;2022-08-30T16:36:44;4.67;;;1.60;;
30247;SDS011;17063;50.892;4.702;2022-08-30T16:39:11;2.90;;;1.80;;
30247;SDS011;17063;50.892;4.702;2022-08-30T16:41:39;4.67;;;1.67;;
30247;SDS011;17063;50.892;4.702;2022-08-30T16:44:07;9.13;;;2.00;;
30247;SDS011;17063;50.892;4.702;2022-08-30T16:46:36;5.13;;;1.70;;